sensor_id;sensor_type;location;lat;lon;timestamp;temperature;humidity
2539;DHT22;1280;49.760;9.664;2023-04-05T00:00:38;5.10;64.00
2539;DHT22;1280;49.760;9.664;2023-04-05T00:03:11;5.10;64.10
2539;DHT22;1280;49.760;9.664;2023-04-05T00:05:45;5.10;64.10
2539;DHT22;1280;49.760;9.664;2023-04-05T00:08:21;5.00;64.10
2539;DHT22;1280;49.760;9.664;2023-04-05T00:11:03;5.00;64.30
2539;DHT22;1280;49.760;9.664;2023-04-05T00:13:35;5.00;64.30
2539;DHT22;1280;49.760;9.664;2023-04-05T00:16:16;4.90;64.30
2539;DHT22;1280;49.760;9.664;2023-04-05T00:19:05;4.90;64.40
2539;DHT22;1280;49.760;9.664;2023-04-05T00:21:43;4.90;64.50
2539;DHT22;1280;49.760;9.664;2023-04-05T00:24:15;4.90;64.60
2539;DHT22;1280;49.760;9.664;2023-04-05T00:26:49;4.90;64.50
2539;DHT22;1280;49.760;9.664;2023-04-05T00:29:26;4.90;64.60
2539;DHT22;1280;49.760;9.664;2023-04-05T00:32:04;4.90;64.60
2539;DHT22;1280;49.760;9.664;2023-04-05T00:34:41;4.90;64.60
2539;DHT22;1280;49.760;9.664;2023-04-05T00:37:18;4.80;64.60
2539;DHT22;1280;49.760;9.664;2023-04-05T00:39:52;4.80;64.70
2539;DHT22;1280;49.760;9.664;2023-04-05T00:42:35;4.80;64.80
2539;DHT22;1280;49.760;9.664;2023-04-05T00:45:10;4.70;64.90
2539;DHT22;1280;49.760;9.664;2023-04-05T00:47:40;4.70;64.90
2539;DHT22;1280;49.760;9.664;2023-04-05T00:50:10;4.70;64.90
2539;DHT22;1280;49.760;9.664;2023-04-05T00:52:53;4.70;64.90
2539;DHT22;1280;49.760;9.664;2023-04-05T00:55:28;4.60;64.90
2539;DHT22;1280;49.760;9.664;2023-04-05T00:58:05;4.60;65.10
2539;DHT22;1280;49.760;9.664;2023-04-05T01:00:46;4.60;65.20
2539;DHT22;1280;49.760;9.664;2023-04-05T01:03:20;4.60;65.20
2539;DHT22;1280;49.760;9.664;2023-04-05T01:06:08;4.50;65.20
2539;DHT22;1280;49.760;9.664;2023-04-05T01:09:01;4.50;65.20
2539;DHT22;1280;49.760;9.664;2023-04-05T01:11:40;4.50;65.20
2539;DHT22;1280;49.760;9.664;2023-04-05T01:14:17;4.50;65.20
2539;DHT22;1280;49.760;9.664;2023-04-05T01:16:52;4.40;65.20
2539;DHT22;1280;49.760;9.664;2023-04-05T01:19:28;4.40;65.20
2539;DHT22;1280;49.760;9.664;2023-04-05T01:22:22;4.40;65.20
2539;DHT22;1280;49.760;9.664;2023-04-05T01:28:34;4.30;65.20
2539;DHT22;1280;49.760;9.664;2023-04-05T01:31:31;4.20;65.20
2539;DHT22;1280;49.760;9.664;2023-04-05T01:34:18;4.20;65.30
2539;DHT22;1280;49.760;9.664;2023-04-05T01:37:02;4.10;65.30
2539;DHT22;1280;49.760;9.664;2023-04-05T01:39:34;4.10;65.40
2539;DHT22;1280;49.760;9.664;2023-04-05T01:42:10;4.10;65.40
2539;DHT22;1280;49.760;9.664;2023-04-05T01:44:40;4.10;65.30
2539;DHT22;1280;49.760;9.664;2023-04-05T01:47:17;4.10;65.30
2539;DHT22;1280;49.760;9.664;2023-04-05T01:49:48;4.00;65.40
2539;DHT22;1280;49.760;9.664;2023-04-05T01:52:18;4.00;65.40
2539;DHT22;1280;49.760;9.664;2023-04-05T01:54:58;4.00;65.30
2539;DHT22;1280;49.760;9.664;2023-04-05T01:57:29;4.00;65.30
2539;DHT22;1280;49.760;9.664;2023-04-05T02:00:08;3.90;65.40
2539;DHT22;1280;49.760;9.664;2023-04-05T02:02:54;3.90;65.40
2539;DHT22;1280;49.760;9.664;2023-04-05T02:05:32;3.80;65.40
2539;DHT22;1280;49.760;9.664;2023-04-05T02:08:12;3.80;65.50
2539;DHT22;1280;49.760;9.664;2023-04-05T02:10:44;3.80;65.50
2539;DHT22;1280;49.760;9.664;2023-04-05T02:13:16;3.80;65.50
2539;DHT22;1280;49.760;9.664;2023-04-05T02:15:53;3.80;65.40
2539;DHT22;1280;49.760;9.664;2023-04-05T02:18:42;3.70;65.40
2539;DHT22;1280;49.760;9.664;2023-04-05T02:21:19;3.70;65.30
2539;DHT22;1280;49.760;9.664;2023-04-05T02:23:52;3.60;65.40
2539;DHT22;1280;49.760;9.664;2023-04-05T02:26:25;3.60;65.20
2539;DHT22;1280;49.760;9.664;2023-04-05T02:28:53;3.50;65.30
2539;DHT22;1280;49.760;9.664;2023-04-05T02:31:24;3.50;65.40
2539;DHT22;1280;49.760;9.664;2023-04-05T02:34:02;3.50;65.40
2539;DHT22;1280;49.760;9.664;2023-04-05T02:36:43;3.50;65.40
2539;DHT22;1280;49.760;9.664;2023-04-05T02:39:13;3.40;65.30
2539;DHT22;1280;49.760;9.664;2023-04-05T02:41:51;3.40;65.30
2539;DHT22;1280;49.760;9.664;2023-04-05T02:44:25;3.30;65.40
2539;DHT22;1280;49.760;9.664;2023-04-05T02:46:58;3.30;65.40
2539;DHT22;1280;49.760;9.664;2023-04-05T02:49:45;3.30;65.70
2539;DHT22;1280;49.760;9.664;2023-04-05T02:52:17;3.30;65.70
2539;DHT22;1280;49.760;9.664;2023-04-05T02:54:48;3.30;65.70
2539;DHT22;1280;49.760;9.664;2023-04-05T02:57:27;3.40;65.70
2539;DHT22;1280;49.760;9.664;2023-04-05T03:00:21;3.40;65.60
2539;DHT22;1280;49.760;9.664;2023-04-05T03:03:01;3.40;65.60
2539;DHT22;1280;49.760;9.664;2023-04-05T03:05:58;3.40;65.70
2539;DHT22;1280;49.760;9.664;2023-04-05T03:08:35;3.40;65.70
2539;DHT22;1280;49.760;9.664;2023-04-05T03:11:23;3.40;65.70
2539;DHT22;1280;49.760;9.664;2023-04-05T03:13:58;3.30;65.60
2539;DHT22;1280;49.760;9.664;2023-04-05T03:16:42;3.30;65.60
2539;DHT22;1280;49.760;9.664;2023-04-05T03:19:33;3.30;65.80
2539;DHT22;1280;49.760;9.664;2023-04-05T03:22:30;3.20;65.80
2539;DHT22;1280;49.760;9.664;2023-04-05T03:25:06;3.20;65.70
2539;DHT22;1280;49.760;9.664;2023-04-05T03:27:50;3.20;65.50
2539;DHT22;1280;49.760;9.664;2023-04-05T03:30:31;3.10;65.70
2539;DHT22;1280;49.760;9.664;2023-04-05T03:33:16;3.10;65.70
2539;DHT22;1280;49.760;9.664;2023-04-05T03:35:54;3.10;65.70
2539;DHT22;1280;49.760;9.664;2023-04-05T03:38:39;3.10;65.70
2539;DHT22;1280;49.760;9.664;2023-04-05T03:41:16;3.00;65.80
2539;DHT22;1280;49.760;9.664;2023-04-05T03:43:47;3.00;65.80
2539;DHT22;1280;49.760;9.664;2023-04-05T03:46:22;3.00;65.80
2539;DHT22;1280;49.760;9.664;2023-04-05T03:49:05;3.00;65.80
2539;DHT22;1280;49.760;9.664;2023-04-05T03:51:38;3.00;65.90
2539;DHT22;1280;49.760;9.664;2023-04-05T03:54:20;3.00;65.90
2539;DHT22;1280;49.760;9.664;2023-04-05T03:56:57;3.00;65.90
2539;DHT22;1280;49.760;9.664;2023-04-05T03:59:27;2.90;65.80
2539;DHT22;1280;49.760;9.664;2023-04-05T04:02:02;2.80;65.70
2539;DHT22;1280;49.760;9.664;2023-04-05T04:04:43;2.80;65.60
2539;DHT22;1280;49.760;9.664;2023-04-05T04:07:16;2.70;65.70
2539;DHT22;1280;49.760;9.664;2023-04-05T04:09:55;2.70;65.70
2539;DHT22;1280;49.760;9.664;2023-04-05T04:12:23;2.60;65.70
2539;DHT22;1280;49.760;9.664;2023-04-05T04:15:01;2.60;65.70
2539;DHT22;1280;49.760;9.664;2023-04-05T04:17:45;2.60;66.00
2539;DHT22;1280;49.760;9.664;2023-04-05T04:20:14;2.60;66.10
2539;DHT22;1280;49.760;9.664;2023-04-05T04:23:10;2.60;66.20
2539;DHT22;1280;49.760;9.664;2023-04-05T04:26:39;2.60;66.20
2539;DHT22;1280;49.760;9.664;2023-04-05T04:29:42;2.70;66.20
2539;DHT22;1280;49.760;9.664;2023-04-05T04:32:52;2.70;66.20
2539;DHT22;1280;49.760;9.664;2023-04-05T04:36:06;2.70;66.20
2539;DHT22;1280;49.760;9.664;2023-04-05T04:39:11;2.70;66.00
2539;DHT22;1280;49.760;9.664;2023-04-05T04:42:13;2.70;66.00
2539;DHT22;1280;49.760;9.664;2023-04-05T04:45:09;2.70;66.00
2539;DHT22;1280;49.760;9.664;2023-04-05T04:48:14;2.70;66.10
2539;DHT22;1280;49.760;9.664;2023-04-05T04:50:57;2.70;66.10
2539;DHT22;1280;49.760;9.664;2023-04-05T04:53:38;2.70;66.10
2539;DHT22;1280;49.760;9.664;2023-04-05T04:56:09;2.60;66.10
2539;DHT22;1280;49.760;9.664;2023-04-05T04:58:44;2.60;66.10
2539;DHT22;1280;49.760;9.664;2023-04-05T05:01:17;2.60;66.10
2539;DHT22;1280;49.760;9.664;2023-04-05T05:04:04;2.60;66.10
2539;DHT22;1280;49.760;9.664;2023-04-05T05:06:43;2.60;66.10
2539;DHT22;1280;49.760;9.664;2023-04-05T05:09:17;2.50;66.20
2539;DHT22;1280;49.760;9.664;2023-04-05T05:11:58;2.60;66.20
2539;DHT22;1280;49.760;9.664;2023-04-05T05:14:43;2.60;66.20
2539;DHT22;1280;49.760;9.664;2023-04-05T05:17:24;2.60;66.20
2539;DHT22;1280;49.760;9.664;2023-04-05T05:20:06;2.60;66.20
2539;DHT22;1280;49.760;9.664;2023-04-05T05:22:44;2.60;66.40
2539;DHT22;1280;49.760;9.664;2023-04-05T05:25:19;3.00;67.50
2539;DHT22;1280;49.760;9.664;2023-04-05T05:27:55;3.20;66.50
2539;DHT22;1280;49.760;9.664;2023-04-05T05:30:32;3.10;65.80
2539;DHT22;1280;49.760;9.664;2023-04-05T05:33:06;3.00;65.70
2539;DHT22;1280;49.760;9.664;2023-04-05T05:35:48;2.90;65.60
2539;DHT22;1280;49.760;9.664;2023-04-05T05:38:22;2.70;65.70
2539;DHT22;1280;49.760;9.664;2023-04-05T05:41:01;2.70;65.80
2539;DHT22;1280;49.760;9.664;2023-04-05T05:43:39;2.60;66.00
2539;DHT22;1280;49.760;9.664;2023-04-05T05:46:20;2.50;66.10
2539;DHT22;1280;49.760;9.664;2023-04-05T05:48:54;2.40;66.20
2539;DHT22;1280;49.760;9.664;2023-04-05T05:51:29;2.30;66.30
2539;DHT22;1280;49.760;9.664;2023-04-05T05:54:03;2.40;66.50
2539;DHT22;1280;49.760;9.664;2023-04-05T05:56:33;2.40;66.60
2539;DHT22;1280;49.760;9.664;2023-04-05T05:59:08;2.40;66.70
2539;DHT22;1280;49.760;9.664;2023-04-05T06:01:43;2.40;66.80
2539;DHT22;1280;49.760;9.664;2023-04-05T06:04:22;2.40;66.80
2539;DHT22;1280;49.760;9.664;2023-04-05T06:07:03;2.40;66.90
2539;DHT22;1280;49.760;9.664;2023-04-05T06:09:37;2.50;67.00
2539;DHT22;1280;49.760;9.664;2023-04-05T06:12:13;2.60;67.20
2539;DHT22;1280;49.760;9.664;2023-04-05T06:14:46;2.60;67.20
2539;DHT22;1280;49.760;9.664;2023-04-05T06:17:19;2.70;67.20
2539;DHT22;1280;49.760;9.664;2023-04-05T06:19:51;2.80;67.30
2539;DHT22;1280;49.760;9.664;2023-04-05T06:22:31;2.80;67.30
2539;DHT22;1280;49.760;9.664;2023-04-05T06:25:10;2.90;67.30
2539;DHT22;1280;49.760;9.664;2023-04-05T06:27:45;3.00;67.20
2539;DHT22;1280;49.760;9.664;2023-04-05T06:30:23;3.00;67.30
2539;DHT22;1280;49.760;9.664;2023-04-05T06:33:07;3.00;67.40
2539;DHT22;1280;49.760;9.664;2023-04-05T06:35:40;3.10;67.50
2539;DHT22;1280;49.760;9.664;2023-04-05T06:38:12;3.20;67.50
2539;DHT22;1280;49.760;9.664;2023-04-05T06:40:48;3.20;67.50
2539;DHT22;1280;49.760;9.664;2023-04-05T06:43:21;3.30;67.60
2539;DHT22;1280;49.760;9.664;2023-04-05T06:45:59;3.30;67.60
2539;DHT22;1280;49.760;9.664;2023-04-05T06:48:40;3.40;67.60
2539;DHT22;1280;49.760;9.664;2023-04-05T06:51:15;3.50;67.60
2539;DHT22;1280;49.760;9.664;2023-04-05T06:53:58;3.50;67.50
2539;DHT22;1280;49.760;9.664;2023-04-05T06:56:32;3.60;67.50
2539;DHT22;1280;49.760;9.664;2023-04-05T06:59:05;3.60;67.40
2539;DHT22;1280;49.760;9.664;2023-04-05T07:01:40;3.50;67.30
2539;DHT22;1280;49.760;9.664;2023-04-05T07:04:16;3.50;67.20
2539;DHT22;1280;49.760;9.664;2023-04-05T07:06:46;3.50;67.10
2539;DHT22;1280;49.760;9.664;2023-04-05T07:09:27;3.40;67.10
2539;DHT22;1280;49.760;9.664;2023-04-05T07:12:07;3.40;67.20
2539;DHT22;1280;49.760;9.664;2023-04-05T07:14:40;3.40;67.20
2539;DHT22;1280;49.760;9.664;2023-04-05T07:17:13;3.40;67.10
2539;DHT22;1280;49.760;9.664;2023-04-05T07:20:05;3.50;67.10
2539;DHT22;1280;49.760;9.664;2023-04-05T07:22:41;3.50;67.20
2539;DHT22;1280;49.760;9.664;2023-04-05T07:25:15;3.50;67.20
2539;DHT22;1280;49.760;9.664;2023-04-05T07:28:00;3.50;67.20
2539;DHT22;1280;49.760;9.664;2023-04-05T07:30:35;3.50;67.10
2539;DHT22;1280;49.760;9.664;2023-04-05T07:33:22;3.60;67.30
2539;DHT22;1280;49.760;9.664;2023-04-05T07:36:08;3.70;67.30
2539;DHT22;1280;49.760;9.664;2023-04-05T07:38:41;3.70;67.30
2539;DHT22;1280;49.760;9.664;2023-04-05T07:41:13;3.70;67.10
2539;DHT22;1280;49.760;9.664;2023-04-05T07:43:47;3.80;67.00
2539;DHT22;1280;49.760;9.664;2023-04-05T07:46:20;3.80;66.80
2539;DHT22;1280;49.760;9.664;2023-04-05T07:48:52;3.80;66.90
2539;DHT22;1280;49.760;9.664;2023-04-05T07:51:39;3.90;67.00
2539;DHT22;1280;49.760;9.664;2023-04-05T07:54:19;4.10;66.90
2539;DHT22;1280;49.760;9.664;2023-04-05T07:56:52;4.20;66.90
2539;DHT22;1280;49.760;9.664;2023-04-05T07:59:25;4.20;66.70
2539;DHT22;1280;49.760;9.664;2023-04-05T08:01:59;4.30;66.60
2539;DHT22;1280;49.760;9.664;2023-04-05T08:04:42;4.30;66.60
2539;DHT22;1280;49.760;9.664;2023-04-05T08:07:28;4.40;66.40
2539;DHT22;1280;49.760;9.664;2023-04-05T08:10:08;4.40;66.30
2539;DHT22;1280;49.760;9.664;2023-04-05T08:12:40;4.50;66.30
2539;DHT22;1280;49.760;9.664;2023-04-05T08:15:18;4.60;66.40
2539;DHT22;1280;49.760;9.664;2023-04-05T08:17:51;4.70;66.30
2539;DHT22;1280;49.760;9.664;2023-04-05T08:20:24;4.70;66.20
2539;DHT22;1280;49.760;9.664;2023-04-05T08:23:04;4.80;66.20
2539;DHT22;1280;49.760;9.664;2023-04-05T08:25:39;4.90;66.00
2539;DHT22;1280;49.760;9.664;2023-04-05T08:28:19;4.90;66.00
2539;DHT22;1280;49.760;9.664;2023-04-05T08:30:59;5.00;65.80
2539;DHT22;1280;49.760;9.664;2023-04-05T08:33:32;5.10;65.80
2539;DHT22;1280;49.760;9.664;2023-04-05T08:36:05;5.20;65.70
2539;DHT22;1280;49.760;9.664;2023-04-05T08:38:44;5.20;65.60
2539;DHT22;1280;49.760;9.664;2023-04-05T08:41:20;5.20;65.40
2539;DHT22;1280;49.760;9.664;2023-04-05T08:43:55;5.20;65.30
2539;DHT22;1280;49.760;9.664;2023-04-05T08:46:30;5.30;65.20
2539;DHT22;1280;49.760;9.664;2023-04-05T08:48:59;5.30;65.20
2539;DHT22;1280;49.760;9.664;2023-04-05T08:51:38;5.30;65.20
2539;DHT22;1280;49.760;9.664;2023-04-05T08:54:29;5.40;65.10
2539;DHT22;1280;49.760;9.664;2023-04-05T08:57:03;5.50;65.20
2539;DHT22;1280;49.760;9.664;2023-04-05T08:59:43;5.60;65.20
2539;DHT22;1280;49.760;9.664;2023-04-05T09:02:20;5.60;64.90
2539;DHT22;1280;49.760;9.664;2023-04-05T09:04:58;5.70;64.70
2539;DHT22;1280;49.760;9.664;2023-04-05T09:07:33;5.70;64.70
2539;DHT22;1280;49.760;9.664;2023-04-05T09:10:11;5.70;64.40
2539;DHT22;1280;49.760;9.664;2023-04-05T09:12:44;5.70;64.40
2539;DHT22;1280;49.760;9.664;2023-04-05T09:15:23;5.70;64.40
2539;DHT22;1280;49.760;9.664;2023-04-05T09:18:01;5.80;64.40
2539;DHT22;1280;49.760;9.664;2023-04-05T09:20:47;5.80;64.20
2539;DHT22;1280;49.760;9.664;2023-04-05T09:23:16;5.90;64.10
2539;DHT22;1280;49.760;9.664;2023-04-05T09:26:16;5.90;64.00
2539;DHT22;1280;49.760;9.664;2023-04-05T09:29:02;6.00;63.90
2539;DHT22;1280;49.760;9.664;2023-04-05T09:31:36;6.00;63.90
2539;DHT22;1280;49.760;9.664;2023-04-05T09:34:19;6.00;63.70
2539;DHT22;1280;49.760;9.664;2023-04-05T09:36:55;6.00;63.60
2539;DHT22;1280;49.760;9.664;2023-04-05T09:39:31;6.00;63.50
2539;DHT22;1280;49.760;9.664;2023-04-05T09:42:08;6.10;63.40
2539;DHT22;1280;49.760;9.664;2023-04-05T09:44:52;6.10;63.40
2539;DHT22;1280;49.760;9.664;2023-04-05T09:47:28;6.20;63.40
2539;DHT22;1280;49.760;9.664;2023-04-05T09:50:18;6.20;63.40
2539;DHT22;1280;49.760;9.664;2023-04-05T09:53:12;6.30;62.90
2539;DHT22;1280;49.760;9.664;2023-04-05T09:55:49;6.30;62.80
2539;DHT22;1280;49.760;9.664;2023-04-05T09:58:34;6.40;62.80
2539;DHT22;1280;49.760;9.664;2023-04-05T10:01:07;6.40;62.80
2539;DHT22;1280;49.760;9.664;2023-04-05T10:03:49;6.50;62.80
2539;DHT22;1280;49.760;9.664;2023-04-05T10:06:21;6.50;62.60
2539;DHT22;1280;49.760;9.664;2023-04-05T10:08:58;6.50;62.40
2539;DHT22;1280;49.760;9.664;2023-04-05T10:11:32;6.50;62.30
2539;DHT22;1280;49.760;9.664;2023-04-05T10:14:17;6.60;62.30
2539;DHT22;1280;49.760;9.664;2023-04-05T10:16:55;6.70;62.00
2539;DHT22;1280;49.760;9.664;2023-04-05T10:19:34;6.70;61.90
2539;DHT22;1280;49.760;9.664;2023-04-05T10:22:19;6.80;61.60
2539;DHT22;1280;49.760;9.664;2023-04-05T10:25:10;6.70;61.10
2539;DHT22;1280;49.760;9.664;2023-04-05T10:27:53;6.80;61.10
2539;DHT22;1280;49.760;9.664;2023-04-05T10:30:53;6.90;61.00
2539;DHT22;1280;49.760;9.664;2023-04-05T10:33:33;7.00;60.70
2539;DHT22;1280;49.760;9.664;2023-04-05T10:36:44;7.00;60.90
2539;DHT22;1280;49.760;9.664;2023-04-05T10:39:28;7.10;60.50
2539;DHT22;1280;49.760;9.664;2023-04-05T10:42:07;7.20;60.30
2539;DHT22;1280;49.760;9.664;2023-04-05T10:44:52;7.10;60.00
2539;DHT22;1280;49.760;9.664;2023-04-05T10:47:35;7.20;59.90
2539;DHT22;1280;49.760;9.664;2023-04-05T10:50:08;7.20;59.70
2539;DHT22;1280;49.760;9.664;2023-04-05T10:52:45;7.20;59.70
2539;DHT22;1280;49.760;9.664;2023-04-05T10:55:25;7.30;59.50
2539;DHT22;1280;49.760;9.664;2023-04-05T10:58:04;7.30;59.40
2539;DHT22;1280;49.760;9.664;2023-04-05T11:00:45;7.30;59.30
2539;DHT22;1280;49.760;9.664;2023-04-05T11:03:52;7.30;59.20
2539;DHT22;1280;49.760;9.664;2023-04-05T11:06:31;7.50;59.30
2539;DHT22;1280;49.760;9.664;2023-04-05T11:09:37;7.60;59.10
2539;DHT22;1280;49.760;9.664;2023-04-05T11:12:18;7.70;58.80
2539;DHT22;1280;49.760;9.664;2023-04-05T11:15:29;7.80;58.50
2539;DHT22;1280;49.760;9.664;2023-04-05T11:18:11;7.90;58.40
2539;DHT22;1280;49.760;9.664;2023-04-05T11:20:46;8.00;58.50
2539;DHT22;1280;49.760;9.664;2023-04-05T11:23:22;8.10;58.30
2539;DHT22;1280;49.760;9.664;2023-04-05T11:26:02;8.20;58.40
2539;DHT22;1280;49.760;9.664;2023-04-05T11:28:38;8.30;58.30
2539;DHT22;1280;49.760;9.664;2023-04-05T11:31:16;8.50;58.30
2539;DHT22;1280;49.760;9.664;2023-04-05T11:33:59;8.50;57.70
2539;DHT22;1280;49.760;9.664;2023-04-05T11:36:50;8.60;57.40
2539;DHT22;1280;49.760;9.664;2023-04-05T11:39:28;8.60;57.30
2539;DHT22;1280;49.760;9.664;2023-04-05T11:42:01;8.60;57.20
2539;DHT22;1280;49.760;9.664;2023-04-05T11:44:41;8.60;57.00
2539;DHT22;1280;49.760;9.664;2023-04-05T11:47:24;8.60;56.80
2539;DHT22;1280;49.760;9.664;2023-04-05T11:49:57;8.70;56.80
2539;DHT22;1280;49.760;9.664;2023-04-05T11:52:34;8.70;57.00
2539;DHT22;1280;49.760;9.664;2023-04-05T11:55:04;8.80;56.90
2539;DHT22;1280;49.760;9.664;2023-04-05T11:57:36;8.90;56.90
2539;DHT22;1280;49.760;9.664;2023-04-05T12:00:16;8.90;56.70
2539;DHT22;1280;49.760;9.664;2023-04-05T12:03:03;9.00;56.70
2539;DHT22;1280;49.760;9.664;2023-04-05T12:05:49;9.10;56.60
2539;DHT22;1280;49.760;9.664;2023-04-05T12:08:39;9.20;56.40
2539;DHT22;1280;49.760;9.664;2023-04-05T12:11:24;9.20;56.00
2539;DHT22;1280;49.760;9.664;2023-04-05T12:13:58;9.20;55.90
2539;DHT22;1280;49.760;9.664;2023-04-05T12:16:27;9.10;55.50
2539;DHT22;1280;49.760;9.664;2023-04-05T12:18:59;9.20;55.50
2539;DHT22;1280;49.760;9.664;2023-04-05T12:21:31;9.10;55.20
2539;DHT22;1280;49.760;9.664;2023-04-05T12:24:07;9.10;55.20
2539;DHT22;1280;49.760;9.664;2023-04-05T12:26:40;9.10;54.90
2539;DHT22;1280;49.760;9.664;2023-04-05T12:29:26;9.10;55.00
2539;DHT22;1280;49.760;9.664;2023-04-05T12:31:57;9.10;55.00
2539;DHT22;1280;49.760;9.664;2023-04-05T12:34:29;9.10;54.80
2539;DHT22;1280;49.760;9.664;2023-04-05T12:37:01;9.10;54.60
2539;DHT22;1280;49.760;9.664;2023-04-05T12:39:44;9.10;54.50
2539;DHT22;1280;49.760;9.664;2023-04-05T12:42:17;9.10;54.60
2539;DHT22;1280;49.760;9.664;2023-04-05T12:45:02;9.20;54.90
2539;DHT22;1280;49.760;9.664;2023-04-05T12:47:35;9.20;54.50
2539;DHT22;1280;49.760;9.664;2023-04-05T12:50:13;9.30;54.40
2539;DHT22;1280;49.760;9.664;2023-04-05T12:52:58;9.30;54.10
2539;DHT22;1280;49.760;9.664;2023-04-05T12:55:41;9.30;53.90
2539;DHT22;1280;49.760;9.664;2023-04-05T12:58:14;9.30;54.10
2539;DHT22;1280;49.760;9.664;2023-04-05T13:00:57;9.30;54.10
2539;DHT22;1280;49.760;9.664;2023-04-05T13:03:34;9.30;53.80
2539;DHT22;1280;49.760;9.664;2023-04-05T13:06:05;9.30;53.70
2539;DHT22;1280;49.760;9.664;2023-04-05T13:08:41;9.40;53.90
2539;DHT22;1280;49.760;9.664;2023-04-05T13:11:27;9.40;53.90
2539;DHT22;1280;49.760;9.664;2023-04-05T13:14:00;9.50;53.70
2539;DHT22;1280;49.760;9.664;2023-04-05T13:16:40;9.60;53.80
2539;DHT22;1280;49.760;9.664;2023-04-05T13:19:12;9.50;53.60
2539;DHT22;1280;49.760;9.664;2023-04-05T13:21:44;9.60;53.70
2539;DHT22;1280;49.760;9.664;2023-04-05T13:24:23;9.60;53.80
2539;DHT22;1280;49.760;9.664;2023-04-05T13:27:10;9.60;53.90
2539;DHT22;1280;49.760;9.664;2023-04-05T13:29:43;9.60;53.40
2539;DHT22;1280;49.760;9.664;2023-04-05T13:32:14;9.60;53.40
2539;DHT22;1280;49.760;9.664;2023-04-05T13:34:50;9.60;53.30
2539;DHT22;1280;49.760;9.664;2023-04-05T13:37:23;9.50;53.20
2539;DHT22;1280;49.760;9.664;2023-04-05T13:40:10;9.50;53.30
2539;DHT22;1280;49.760;9.664;2023-04-05T13:42:50;9.60;53.40
2539;DHT22;1280;49.760;9.664;2023-04-05T13:45:23;9.70;53.40
2539;DHT22;1280;49.760;9.664;2023-04-05T13:47:55;9.70;53.00
2539;DHT22;1280;49.760;9.664;2023-04-05T13:50:26;9.70;52.70
2539;DHT22;1280;49.760;9.664;2023-04-05T13:53:01;9.70;52.60
2539;DHT22;1280;49.760;9.664;2023-04-05T13:55:34;9.70;52.60
2539;DHT22;1280;49.760;9.664;2023-04-05T13:58:18;9.70;52.50
2539;DHT22;1280;49.760;9.664;2023-04-05T14:00:56;9.70;52.40
2539;DHT22;1280;49.760;9.664;2023-04-05T14:03:29;9.70;52.40
2539;DHT22;1280;49.760;9.664;2023-04-05T14:06:01;9.80;52.50
2539;DHT22;1280;49.760;9.664;2023-04-05T14:08:33;9.90;52.50
2539;DHT22;1280;49.760;9.664;2023-04-05T14:11:13;9.90;52.40
2539;DHT22;1280;49.760;9.664;2023-04-05T14:13:55;10.00;52.40
2539;DHT22;1280;49.760;9.664;2023-04-05T14:16:33;10.00;52.60
2539;DHT22;1280;49.760;9.664;2023-04-05T14:19:11;10.10;52.40
2539;DHT22;1280;49.760;9.664;2023-04-05T14:21:46;10.10;52.30
2539;DHT22;1280;49.760;9.664;2023-04-05T14:24:19;10.10;52.00
2539;DHT22;1280;49.760;9.664;2023-04-05T14:26:56;10.10;52.00
2539;DHT22;1280;49.760;9.664;2023-04-05T14:29:43;10.20;52.10
2539;DHT22;1280;49.760;9.664;2023-04-05T14:32:20;10.20;52.20
2539;DHT22;1280;49.760;9.664;2023-04-05T14:35:03;10.20;52.00
2539;DHT22;1280;49.760;9.664;2023-04-05T14:37:34;10.20;51.80
2539;DHT22;1280;49.760;9.664;2023-04-05T14:40:12;10.20;51.40
2539;DHT22;1280;49.760;9.664;2023-04-05T14:42:45;10.10;51.50
2539;DHT22;1280;49.760;9.664;2023-04-05T14:45:21;10.10;51.50
2539;DHT22;1280;49.760;9.664;2023-04-05T14:47:57;10.10;51.60
2539;DHT22;1280;49.760;9.664;2023-04-05T14:50:38;10.00;51.70
2539;DHT22;1280;49.760;9.664;2023-04-05T14:53:18;10.10;51.80
2539;DHT22;1280;49.760;9.664;2023-04-05T14:55:52;10.10;51.80
2539;DHT22;1280;49.760;9.664;2023-04-05T14:58:25;10.10;51.60
2539;DHT22;1280;49.760;9.664;2023-04-05T15:00:56;10.10;51.60
2539;DHT22;1280;49.760;9.664;2023-04-05T15:03:33;10.10;51.60
2539;DHT22;1280;49.760;9.664;2023-04-05T15:06:07;10.10;51.80
2539;DHT22;1280;49.760;9.664;2023-04-05T15:08:46;10.10;51.70
2539;DHT22;1280;49.760;9.664;2023-04-05T15:11:21;10.10;51.70
2539;DHT22;1280;49.760;9.664;2023-04-05T15:13:57;10.20;51.70
2539;DHT22;1280;49.760;9.664;2023-04-05T15:16:29;10.10;51.50
2539;DHT22;1280;49.760;9.664;2023-04-05T15:19:02;10.20;51.70
2539;DHT22;1280;49.760;9.664;2023-04-05T15:21:38;10.20;51.70
2539;DHT22;1280;49.760;9.664;2023-04-05T15:24:14;10.30;51.80
2539;DHT22;1280;49.760;9.664;2023-04-05T15:26:47;10.40;51.70
2539;DHT22;1280;49.760;9.664;2023-04-05T15:29:21;10.40;51.40
2539;DHT22;1280;49.760;9.664;2023-04-05T15:32:07;10.40;51.30
2539;DHT22;1280;49.760;9.664;2023-04-05T15:34:40;10.40;51.30
2539;DHT22;1280;49.760;9.664;2023-04-05T15:37:12;10.40;51.30
2539;DHT22;1280;49.760;9.664;2023-04-05T15:39:47;10.50;51.30
2539;DHT22;1280;49.760;9.664;2023-04-05T15:42:20;10.50;51.20
2539;DHT22;1280;49.760;9.664;2023-04-05T15:44:57;10.50;51.10
2539;DHT22;1280;49.760;9.664;2023-04-05T15:47:42;10.50;51.20
2539;DHT22;1280;49.760;9.664;2023-04-05T15:50:12;10.60;51.30
2539;DHT22;1280;49.760;9.664;2023-04-05T15:52:50;10.70;51.30
2539;DHT22;1280;49.760;9.664;2023-04-05T15:55:27;10.70;51.30
2539;DHT22;1280;49.760;9.664;2023-04-05T15:57:59;10.80;51.00
2539;DHT22;1280;49.760;9.664;2023-04-05T16:00:29;10.80;50.80
2539;DHT22;1280;49.760;9.664;2023-04-05T16:03:03;10.80;50.70
2539;DHT22;1280;49.760;9.664;2023-04-05T16:05:41;10.80;50.70
2539;DHT22;1280;49.760;9.664;2023-04-05T16:08:19;10.70;50.60
2539;DHT22;1280;49.760;9.664;2023-04-05T16:10:50;10.80;50.30
2539;DHT22;1280;49.760;9.664;2023-04-05T16:13:30;10.70;50.40
2539;DHT22;1280;49.760;9.664;2023-04-05T16:16:05;10.70;50.40
2539;DHT22;1280;49.760;9.664;2023-04-05T16:18:53;10.70;50.50
2539;DHT22;1280;49.760;9.664;2023-04-05T16:21:28;10.80;50.60
2539;DHT22;1280;49.760;9.664;2023-04-05T16:24:02;10.70;50.50
2539;DHT22;1280;49.760;9.664;2023-04-05T16:26:36;10.80;50.50
2539;DHT22;1280;49.760;9.664;2023-04-05T16:29:07;10.70;50.30
2539;DHT22;1280;49.760;9.664;2023-04-05T16:31:42;10.80;50.10
2539;DHT22;1280;49.760;9.664;2023-04-05T16:34:27;10.80;50.10
2539;DHT22;1280;49.760;9.664;2023-04-05T16:37:03;10.80;49.90
2539;DHT22;1280;49.760;9.664;2023-04-05T16:39:40;10.90;50.20
2539;DHT22;1280;49.760;9.664;2023-04-05T16:42:20;11.00;50.50
2539;DHT22;1280;49.760;9.664;2023-04-05T16:45:01;11.00;50.60
2539;DHT22;1280;49.760;9.664;2023-04-05T16:47:32;11.10;50.90
2539;DHT22;1280;49.760;9.664;2023-04-05T16:50:15;11.20;50.90
2539;DHT22;1280;49.760;9.664;2023-04-05T16:52:48;11.30;51.10
2539;DHT22;1280;49.760;9.664;2023-04-05T16:55:30;11.30;50.80
2539;DHT22;1280;49.760;9.664;2023-04-05T16:58:01;11.10;50.40
2539;DHT22;1280;49.760;9.664;2023-04-05T17:00:32;11.00;50.30
2539;DHT22;1280;49.760;9.664;2023-04-05T17:03:12;10.80;50.00
2539;DHT22;1280;49.760;9.664;2023-04-05T17:05:50;10.60;50.10
2539;DHT22;1280;49.760;9.664;2023-04-05T17:08:23;10.50;50.00
2539;DHT22;1280;49.760;9.664;2023-04-05T17:11:04;10.40;50.00
2539;DHT22;1280;49.760;9.664;2023-04-05T17:13:42;10.30;49.90
2539;DHT22;1280;49.760;9.664;2023-04-05T17:16:16;10.20;49.90
2539;DHT22;1280;49.760;9.664;2023-04-05T17:18:51;10.20;49.90
2539;DHT22;1280;49.760;9.664;2023-04-05T17:21:27;10.20;50.00
2539;DHT22;1280;49.760;9.664;2023-04-05T17:24:01;10.10;50.00
2539;DHT22;1280;49.760;9.664;2023-04-05T17:26:36;10.10;50.10
2539;DHT22;1280;49.760;9.664;2023-04-05T17:29:12;10.00;50.00
2539;DHT22;1280;49.760;9.664;2023-04-05T17:31:45;9.90;50.00